Time;durP1;ratioP1;P1;durP2;ratioP2;P2;SDS_P1;SDS_P2;PMS_P1;PMS_P2;Temp;Humidity;BMP_temperature;BMP_pressure;BME280_temperature;BME280_humidity;BME280_pressure;Samples;Min_cycle;Max_cycle;Signal;HPM_P1;HPM_P2
2022/06/17 00:00:33;;;;;;;3.13;1.90;;;20.40;50.00;;;;;;7359672;19;20371;-40
2022/06/17 00:03:02;;;;;;;2.20;1.73;;;20.60;49.80;;;;;;7371395;19;20368;-40
2022/06/17 00:05:34;;;;;;;3.17;1.90;;;20.60;49.70;;;;;;7376165;19;20368;-40
2022/06/17 00:08:08;;;;;;;4.43;1.77;;;20.60;49.90;;;;;;7354777;19;20412;-40
2022/06/17 00:10:38;;;;;;;3.73;2.30;;;20.70;49.50;;;;;;7345116;19;20842;-41
2022/06/17 00:13:08;;;;;;;2.13;1.70;;;20.40;50.00;;;;;;7371944;19;20409;-40
2022/06/17 00:15:37;;;;;;;2.30;1.90;;;20.40;50.20;;;;;;7374905;19;20368;-40
2022/06/17 00:18:07;;;;;;;3.27;2.40;;;20.60;50.10;;;;;;7371734;19;20424;-40
2022/06/17 00:20:39;;;;;;;2.43;2.23;;;20.50;50.20;;;;;;7368404;19;20390;-40
2022/06/17 00:23:13;;;;;;;2.40;2.20;;;20.30;50.50;;;;;;7374905;19;20739;-41
2022/06/17 00:25:45;;;;;;;2.87;1.80;;;20.20;50.30;;;;;;7348868;19;20423;-41
2022/06/17 00:28:17;;;;;;;2.23;1.90;;;20.20;50.50;;;;;;7372402;19;20373;-39
2022/06/17 00:30:47;;;;;;;3.20;2.13;;;20.20;50.40;;;;;;7365681;19;20440;-40
2022/06/17 00:33:18;;;;;;;2.03;1.83;;;20.30;50.70;;;;;;7373408;19;20416;-40
2022/06/17 00:35:53;;;;;;;6.53;2.27;;;20.00;50.90;;;;;;7372141;19;20388;-39
2022/06/17 00:38:24;;;;;;;3.60;2.10;;;20.10;51.40;;;;;;7367758;19;21282;-42
2022/06/17 00:40:55;;;;;;;2.60;2.23;;;20.10;50.70;;;;;;7369482;19;20392;-39
2022/06/17 00:43:31;;;;;;;2.20;2.00;;;19.90;51.40;;;;;;7377441;19;20953;-40
2022/06/17 00:46:08;;;;;;;3.33;2.03;;;19.90;51.40;;;;;;7367123;19;20417;-39
2022/06/17 00:48:42;;;;;;;2.30;2.03;;;19.60;52.10;;;;;;7370690;19;20885;-40
2022/06/17 00:51:19;;;;;;;3.13;2.60;;;19.60;52.50;;;;;;7371168;19;21411;-42
2022/06/17 00:53:54;;;;;;;2.40;2.20;;;19.70;52.10;;;;;;7363853;19;20397;-43
2022/06/17 00:56:27;;;;;;;3.60;2.13;;;19.60;52.20;;;;;;7362958;19;20455;-43
2022/06/17 00:59:04;;;;;;;3.93;2.00;;;19.50;52.70;;;;;;7362026;19;20376;-42
2022/06/17 01:01:44;;;;;;;2.33;2.13;;;19.40;53.00;;;;;;7365677;19;20480;-43
2022/06/17 01:04:15;;;;;;;2.83;2.40;;;19.50;52.90;;;;;;7373801;19;20364;-42
2022/06/17 01:06:51;;;;;;;2.63;1.83;;;19.40;53.10;;;;;;7361581;19;20822;-47
2022/06/17 01:12:12;;;;;;;2.80;2.50;;;19.30;53.20;;;;;;7372954;19;20372;-42
2022/06/17 01:14:44;;;;;;;4.00;2.47;;;19.10;53.70;;;;;;7365472;19;20375;-42
2022/06/17 01:17:18;;;;;;;3.30;2.47;;;19.20;53.90;;;;;;7368110;19;20403;-42
2022/06/17 01:19:49;;;;;;;2.93;2.60;;;19.00;54.40;;;;;;7363181;19;21080;-43
2022/06/17 01:22:39;;;;;;;2.03;1.90;;;18.90;54.70;;;;;;7370570;19;20376;-43
2022/06/17 01:25:13;;;;;;;3.50;2.40;;;19.10;54.60;;;;;;7363575;19;20380;-43
2022/06/17 01:27:46;;;;;;;3.70;2.30;;;18.90;54.80;;;;;;7367760;19;20368;-44
2022/06/17 01:30:19;;;;;;;2.40;2.03;;;19.00;54.60;;;;;;7358101;19;20898;-43
2022/06/17 01:32:55;;;;;;;6.40;2.20;;;19.00;54.60;;;;;;7365160;19;20383;-43
2022/06/17 01:35:32;;;;;;;3.80;2.67;;;18.80;54.90;;;;;;7365503;19;20916;-43
2022/06/17 01:38:04;;;;;;;3.27;2.50;;;18.80;55.50;;;;;;7373160;19;21729;-43
2022/06/17 01:40:38;;;;;;;2.60;2.33;;;18.90;55.40;;;;;;7373677;19;20424;-43
2022/06/17 01:43:12;;;;;;;2.57;1.97;;;19.00;55.20;;;;;;7373740;19;20376;-42
2022/06/17 01:45:46;;;;;;;3.87;2.33;;;18.90;55.40;;;;;;7363684;19;20462;-43
2022/06/17 01:48:23;;;;;;;2.70;2.20;;;18.80;55.60;;;;;;7364619;19;20376;-43
2022/06/17 01:50:57;;;;;;;2.43;2.23;;;18.60;56.00;;;;;;7367493;19;20380;-43
2022/06/17 01:53:34;;;;;;;4.80;2.50;;;18.60;56.20;;;;;;7341006;19;20383;-42
2022/06/17 01:56:09;;;;;;;2.57;2.37;;;18.60;56.40;;;;;;7366440;19;20399;-42
2022/06/17 01:58:43;;;;;;;1.90;1.80;;;18.30;56.90;;;;;;7354554;19;21368;-42
2022/06/17 02:01:14;;;;;;;2.90;2.27;;;18.30;57.30;;;;;;7356888;19;20986;-43
2022/06/17 02:03:51;;;;;;;3.37;2.30;;;18.40;57.40;;;;;;7370960;19;20753;-43
2022/06/17 02:06:28;;;;;;;2.23;2.00;;;18.50;56.80;;;;;;7373455;19;21025;-43
2022/06/17 02:09:00;;;;;;;2.80;2.30;;;18.50;57.00;;;;;;7378848;19;20374;-43
2022/06/17 02:11:35;;;;;;;2.70;2.50;;;18.50;57.20;;;;;;7378767;19;20451;-42
2022/06/17 02:14:12;;;;;;;4.50;2.40;;;18.40;57.20;;;;;;7376151;19;21375;-43
2022/06/17 02:16:53;;;;;;;3.07;2.57;;;18.40;57.40;;;;;;7373110;19;20861;-42
2022/06/17 02:19:38;;;;;;;3.60;2.40;;;18.40;57.60;;;;;;7376263;19;21260;-43
2022/06/17 02:22:11;;;;;;;3.47;2.20;;;18.50;57.50;;;;;;7376731;19;20376;-42
2022/06/17 02:24:45;;;;;;;2.97;2.47;;;18.40;57.50;;;;;;7371166;19;20384;-42
2022/06/17 02:27:16;;;;;;;2.90;2.03;;;18.30;57.70;;;;;;7377644;19;21275;-42
2022/06/17 02:29:47;;;;;;;2.70;2.17;;;18.30;57.90;;;;;;7371364;19;20368;-44
2022/06/17 02:32:17;;;;;;;3.27;2.20;;;18.30;58.20;;;;;;7365277;19;20396;-43
2022/06/17 02:34:53;;;;;;;4.00;2.60;;;18.30;58.10;;;;;;7372381;19;20420;-43
2022/06/17 02:37:26;;;;;;;4.30;2.13;;;18.30;58.00;;;;;;7375378;19;20386;-43
2022/06/17 02:40:02;;;;;;;3.00;2.43;;;18.00;58.60;;;;;;7368003;19;20376;-43
2022/06/17 02:42:36;;;;;;;2.50;2.07;;;18.10;58.70;;;;;;7378015;19;20416;-43
2022/06/17 02:45:12;;;;;;;2.23;2.03;;;18.30;58.50;;;;;;7370327;19;20914;-43
2022/06/17 02:47:43;;;;;;;3.80;2.93;;;18.50;58.00;;;;;;7373494;19;21168;-43
2022/06/17 02:50:19;;;;;;;2.60;2.40;;;18.50;57.90;;;;;;7377767;19;20873;-40
2022/06/17 02:52:50;;;;;;;2.80;2.50;;;18.50;58.10;;;;;;7374611;19;20383;-40
2022/06/17 02:55:31;;;;;;;3.40;2.57;;;18.20;58.90;;;;;;7369316;19;20392;-40
2022/06/17 02:58:08;;;;;;;3.40;2.93;;;18.20;58.90;;;;;;7374214;19;20388;-40
2022/06/17 03:00:38;;;;;;;3.10;2.53;;;18.20;59.20;;;;;;7373313;19;20372;-40
2022/06/17 03:03:11;;;;;;;2.87;2.10;;;18.30;58.90;;;;;;7378238;19;20384;-41
2022/06/17 03:05:45;;;;;;;2.40;2.10;;;18.40;58.30;;;;;;7368383;19;20387;-40
2022/06/17 03:08:23;;;;;;;2.93;2.20;;;18.50;58.30;;;;;;7375957;19;20411;-40
2022/06/17 03:10:57;;;;;;;3.97;2.63;;;18.30;58.70;;;;;;7375993;19;20380;-40
2022/06/17 03:13:34;;;;;;;3.63;2.40;;;18.20;59.20;;;;;;7375098;19;21081;-40
2022/06/17 03:16:05;;;;;;;3.50;2.50;;;17.80;59.90;;;;;;7367242;19;20734;-40
2022/06/17 03:18:37;;;;;;;3.40;2.67;;;17.70;60.90;;;;;;7377253;19;20364;-40
2022/06/17 03:21:08;;;;;;;9.03;2.30;;;18.00;60.00;;;;;;7376404;19;20413;-42
2022/06/17 03:23:51;;;;;;;4.50;2.40;;;18.00;59.60;;;;;;7371571;19;20388;-42
2022/06/17 03:26:28;;;;;;;3.93;2.50;;;18.00;59.80;;;;;;7370999;19;20368;-43
2022/06/17 03:28:59;;;;;;;3.80;1.97;;;18.10;59.80;;;;;;7376413;19;20416;-43
2022/06/17 03:31:36;;;;;;;5.07;2.17;;;18.10;59.60;;;;;;7372420;19;20376;-42
2022/06/17 03:34:09;;;;;;;3.40;3.00;;;17.80;60.30;;;;;;7367661;19;20396;-43
2022/06/17 03:36:46;;;;;;;4.07;2.13;;;17.70;61.80;;;;;;7374379;19;20951;-42
2022/06/17 03:39:21;;;;;;;2.30;2.10;;;17.80;61.10;;;;;;7369912;19;20411;-45
2022/06/17 03:41:56;;;;;;;2.50;2.23;;;17.50;62.30;;;;;;7372084;19;20484;-42
2022/06/17 03:44:31;;;;;;;2.40;2.20;;;17.60;62.50;;;;;;7372119;19;20744;-42
2022/06/17 03:47:06;;;;;;;8.17;2.60;;;17.60;63.60;;;;;;7369078;19;20969;-42
2022/06/17 03:49:43;;;;;;;2.80;2.60;;;17.80;61.70;;;;;;7376136;19;20396;-43
2022/06/17 03:52:21;;;;;;;3.60;2.33;;;17.70;61.70;;;;;;7371231;19;20387;-42
2022/06/17 03:54:51;;;;;;;3.60;2.70;;;17.80;61.90;;;;;;7367011;19;20384;-43
2022/06/17 03:57:23;;;;;;;4.83;2.20;;;17.80;62.00;;;;;;7376082;19;20768;-42
2022/06/17 03:59:54;;;;;;;2.93;2.30;;;18.00;61.70;;;;;;7366956;19;20372;-43
2022/06/17 04:02:29;;;;;;;2.90;2.40;;;18.00;61.50;;;;;;7369860;19;20376;-42
2022/06/17 04:05:02;;;;;;;3.40;2.10;;;18.00;61.60;;;;;;7371597;19;20408;-42
2022/06/17 04:07:34;;;;;;;2.53;2.33;;;18.00;62.00;;;;;;7364816;19;20458;-42
2022/06/17 04:10:04;;;;;;;3.63;2.27;;;18.20;61.70;;;;;;7350802;19;20408;-44
2022/06/17 04:12:40;;;;;;;3.70;1.90;;;18.10;62.00;;;;;;7374854;19;20407;-43
2022/06/17 04:15:34;;;;;;;6.40;2.00;;;18.10;62.40;;;;;;7360419;19;20395;-43
2022/06/17 04:18:04;;;;;;;3.70;2.70;;;18.00;63.00;;;;;;7361588;19;20818;-43
2022/06/17 04:20:41;;;;;;;7.00;2.60;;;17.90;64.10;;;;;;7369343;19;20360;-43
2022/06/17 04:23:15;;;;;;;2.90;2.07;;;18.00;64.30;;;;;;7370261;19;20782;-43
2022/06/17 04:26:10;;;;;;;4.90;2.40;;;18.00;64.10;;;;;;7374220;19;20392;-42
2022/06/17 04:28:48;;;;;;;3.17;2.30;;;17.60;64.50;;;;;;7368731;19;20383;-42
2022/06/17 04:31:23;;;;;;;3.80;2.60;;;17.70;65.70;;;;;;7332231;19;20913;-44
2022/06/17 04:34:06;;;;;;;3.27;2.70;;;17.90;65.90;;;;;;7327132;19;20376;-42
2022/06/17 04:36:42;;;;;;;3.50;2.47;;;18.20;65.40;;;;;;7356885;19;20389;-43
2022/06/17 04:39:23;;;;;;;4.10;2.50;;;18.30;65.10;;;;;;7358322;19;20968;-42
2022/06/17 04:42:16;;;;;;;2.70;2.20;;;18.40;65.00;;;;;;7367307;19;20473;-42
2022/06/17 04:44:51;;;;;;;2.90;2.50;;;18.10;66.10;;;;;;7349225;19;21018;-43
2022/06/17 04:47:22;;;;;;;3.53;2.57;;;17.80;67.60;;;;;;7345343;19;20436;-41
2022/06/17 04:50:04;;;;;;;2.43;2.23;;;17.80;68.80;;;;;;7343856;19;20763;-42
2022/06/17 04:52:42;;;;;;;3.67;2.60;;;17.70;69.80;;;;;;7371356;19;20376;-43
2022/06/17 04:55:41;;;;;;;3.80;2.50;;;17.90;69.50;;;;;;7372543;19;20372;-43
2022/06/17 04:58:40;;;;;;;7.03;2.50;;;17.90;69.60;;;;;;7373192;19;20781;-43
2022/06/17 05:01:21;;;;;;;3.57;3.10;;;18.00;69.80;;;;;;7371534;19;20383;-42
2022/06/17 05:03:56;;;;;;;5.13;3.10;;;18.00;69.40;;;;;;7375299;19;20900;-43
2022/06/17 05:06:33;;;;;;;4.90;2.70;;;17.80;71.10;;;;;;7371982;19;20376;-40
2022/06/17 05:09:10;;;;;;;4.13;2.87;;;17.80;71.80;;;;;;7374594;19;20390;-40
2022/06/17 05:11:45;;;;;;;3.30;2.60;;;17.80;71.90;;;;;;7369573;19;20368;-40
2022/06/17 05:14:23;;;;;;;4.37;2.57;;;17.60;72.10;;;;;;7371872;19;20451;-40
2022/06/17 05:16:56;;;;;;;5.30;2.97;;;17.70;72.20;;;;;;7372396;19;20372;-40
2022/06/17 05:19:26;;;;;;;2.63;2.43;;;17.80;71.00;;;;;;7373871;19;20804;-40
2022/06/17 05:21:59;;;;;;;3.10;2.70;;;18.10;70.40;;;;;;7375564;19;20377;-40
2022/06/17 05:24:32;;;;;;;2.83;2.50;;;18.50;69.50;;;;;;7368120;19;20398;-40
2022/06/17 05:27:02;;;;;;;5.00;3.00;;;18.80;67.30;;;;;;7372551;19;20380;-43
2022/06/17 05:29:32;;;;;;;3.77;2.30;;;18.90;65.90;;;;;;7375072;19;20408;-43
2022/06/17 05:32:14;;;;;;;2.57;2.37;;;18.80;64.20;;;;;;7367777;19;20375;-42
2022/06/17 05:34:45;;;;;;;5.07;2.93;;;18.70;64.10;;;;;;7369427;19;20380;-43
2022/06/17 05:37:15;;;;;;;31.00;3.90;;;18.90;64.60;;;;;;7371255;19;20378;-43
2022/06/17 05:39:47;;;;;;;3.00;2.70;;;19.10;62.90;;;;;;7372867;19;20397;-43
2022/06/17 05:42:17;;;;;;;4.17;2.80;;;19.40;62.60;;;;;;7370875;19;20402;-43
2022/06/17 05:44:49;;;;;;;3.90;2.87;;;19.40;61.60;;;;;;7372741;19;20431;-43
2022/06/17 05:47:40;;;;;;;4.07;2.53;;;19.60;60.00;;;;;;7372818;19;20446;-43
2022/06/17 05:50:26;;;;;;;2.67;2.20;;;19.90;59.00;;;;;;7374133;19;20393;-43
2022/06/17 05:53:17;;;;;;;2.30;2.10;;;20.00;59.40;;;;;;7371866;19;20407;-43
2022/06/17 05:55:54;;;;;;;2.97;2.67;;;20.30;58.70;;;;;;7375058;19;20388;-43
2022/06/17 05:58:24;;;;;;;2.90;2.50;;;20.60;58.30;;;;;;7361822;19;20377;-42
2022/06/17 06:00:55;;;;;;;4.70;2.70;;;20.60;57.80;;;;;;7369915;19;20472;-43
2022/06/17 06:03:30;;;;;;;3.40;2.40;;;20.50;56.50;;;;;;7369375;19;20435;-42
2022/06/17 06:06:05;;;;;;;4.10;3.17;;;20.70;57.00;;;;;;7374537;19;20368;-42
2022/06/17 06:08:35;;;;;;;2.97;2.30;;;21.00;55.90;;;;;;7369293;19;20403;-43
2022/06/17 06:11:06;;;;;;;3.40;3.10;;;21.30;55.60;;;;;;7371639;19;20380;-43
2022/06/17 06:13:40;;;;;;;6.90;2.83;;;21.50;54.80;;;;;;7371957;19;20380;-43
2022/06/17 06:16:15;;;;;;;7.43;3.90;;;21.60;53.70;;;;;;7369562;19;20476;-43
2022/06/17 06:18:50;;;;;;;2.37;2.17;;;21.70;53.80;;;;;;7370895;19;20426;-43
2022/06/17 06:21:25;;;;;;;3.17;2.30;;;21.80;53.70;;;;;;7371947;19;20368;-43
2022/06/17 06:23:57;;;;;;;4.90;2.90;;;22.00;53.30;;;;;;7371958;19;20651;-42
2022/06/17 06:26:34;;;;;;;2.53;2.20;;;22.10;52.50;;;;;;7374120;19;20801;-43
2022/06/17 06:29:18;;;;;;;4.47;2.50;;;22.30;52.10;;;;;;7371318;19;20734;-43
2022/06/17 06:31:51;;;;;;;4.73;2.80;;;22.60;52.00;;;;;;7373576;19;20400;-43
2022/06/17 06:34:29;;;;;;;4.33;2.77;;;22.50;51.20;;;;;;7372611;19;20389;-43
2022/06/17 06:36:59;;;;;;;2.90;2.17;;;22.70;51.30;;;;;;7373041;19;20389;-43
2022/06/17 06:39:32;;;;;;;4.53;2.30;;;22.60;50.50;;;;;;7373161;19;20411;-46
2022/06/17 06:42:05;;;;;;;3.27;2.27;;;22.60;50.50;;;;;;7371764;19;20376;-43
2022/06/17 06:44:36;;;;;;;4.03;2.60;;;22.70;51.00;;;;;;7373249;19;21241;-43
2022/06/17 06:47:35;;;;;;;4.30;2.90;;;22.90;50.30;;;;;;7371094;19;21238;-43
2022/06/17 06:50:22;;;;;;;4.23;2.20;;;22.80;49.50;;;;;;7372013;19;20367;-43
2022/06/17 06:52:57;;;;;;;2.43;2.23;;;22.70;50.30;;;;;;7374416;19;20416;-43
2022/06/17 06:55:28;;;;;;;3.60;2.30;;;22.90;49.70;;;;;;7377842;19;20463;-43
2022/06/17 06:58:00;;;;;;;3.60;2.60;;;23.20;49.50;;;;;;7368935;19;20896;-43
2022/06/17 07:00:32;;;;;;;3.40;2.47;;;23.50;49.10;;;;;;7380526;19;20381;-43
2022/06/17 07:03:01;;;;;;;2.70;2.50;;;23.60;48.70;;;;;;7371649;19;20367;-44
2022/06/17 07:05:37;;;;;;;3.83;2.23;;;23.80;48.90;;;;;;7377517;19;20368;-43
2022/06/17 07:08:07;;;;;;;4.50;2.47;;;23.90;48.00;;;;;;7380421;19;20897;-44
2022/06/17 07:10:40;;;;;;;4.17;2.40;;;24.00;47.70;;;;;;7375280;19;20420;-42
2022/06/17 07:13:10;;;;;;;3.10;2.27;;;24.10;47.40;;;;;;7376706;19;20368;-42
2022/06/17 07:15:43;;;;;;;2.70;2.33;;;24.20;47.50;;;;;;7380684;19;20372;-40
2022/06/17 07:18:16;;;;;;;3.90;2.87;;;24.30;47.50;;;;;;7378800;19;20372;-40
2022/06/17 07:20:51;;;;;;;3.23;2.43;;;24.30;47.00;;;;;;7381195;19;20436;-41
2022/06/17 07:23:23;;;;;;;4.10;2.43;;;24.40;47.10;;;;;;7377196;19;20493;-40
2022/06/17 07:25:53;;;;;;;2.97;2.67;;;24.50;46.90;;;;;;7377528;19;20893;-41
2022/06/17 07:28:27;;;;;;;2.73;2.30;;;24.60;46.20;;;;;;7376343;19;20381;-41
2022/06/17 07:30:59;;;;;;;3.50;2.43;;;24.60;46.70;;;;;;7378598;19;20492;-41
2022/06/17 07:33:31;;;;;;;3.80;2.30;;;24.80;46.60;;;;;;7375618;19;20471;-41
2022/06/17 07:36:05;;;;;;;4.87;2.83;;;24.80;46.30;;;;;;7379552;19;20395;-41
2022/06/17 07:41:23;;;;;;;2.30;2.10;;;24.70;47.40;;;;;;7380847;19;20376;-44
2022/06/17 07:43:54;;;;;;;3.83;2.73;;;24.90;47.10;;;;;;7379237;19;20415;-44
2022/06/17 07:46:24;;;;;;;4.63;2.57;;;24.90;46.60;;;;;;7375736;19;20443;-44
2022/06/17 07:48:53;;;;;;;4.07;2.73;;;25.00;46.60;;;;;;7376163;19;20388;-44
2022/06/17 07:51:27;;;;;;;5.00;3.07;;;25.20;46.80;;;;;;7378770;19;20365;-41
2022/06/17 07:53:58;;;;;;;4.77;2.90;;;25.20;46.90;;;;;;7373297;19;20388;-41
2022/06/17 07:56:28;;;;;;;4.73;3.37;;;25.20;47.20;;;;;;7369515;19;20401;-41
2022/06/17 07:58:58;;;;;;;3.03;2.57;;;25.30;46.90;;;;;;7378216;19;20379;-41
2022/06/17 08:01:27;;;;;;;4.50;2.60;;;25.60;46.50;;;;;;7379103;19;20746;-41
2022/06/17 08:03:59;;;;;;;3.60;3.03;;;25.80;46.10;;;;;;7374626;19;20384;-41
2022/06/17 08:06:31;;;;;;;3.30;2.70;;;26.00;45.90;;;;;;7378034;19;20412;-42
2022/06/17 08:09:01;;;;;;;3.13;2.87;;;26.10;45.40;;;;;;7374914;19;21370;-41
2022/06/17 08:11:31;;;;;;;2.97;2.10;;;26.40;45.30;;;;;;7375780;19;20372;-44
2022/06/17 08:14:05;;;;;;;4.70;2.80;;;26.50;44.50;;;;;;7376990;19;20372;-44
2022/06/17 08:16:36;;;;;;;2.90;2.67;;;26.70;44.40;;;;;;7376011;19;20376;-44
2022/06/17 08:19:07;;;;;;;3.27;2.73;;;26.90;44.20;;;;;;7372682;19;20376;-44
2022/06/17 08:21:42;;;;;;;5.10;3.00;;;27.00;43.70;;;;;;7375702;19;20379;-44
2022/06/17 08:24:12;;;;;;;9.70;3.07;;;27.10;43.30;;;;;;7379340;19;20435;-45
2022/06/17 08:26:41;;;;;;;2.70;2.50;;;27.20;43.30;;;;;;7379068;19;20380;-44
2022/06/17 08:29:11;;;;;;;4.07;2.90;;;27.30;42.70;;;;;;7380646;19;21364;-45
2022/06/17 08:31:40;;;;;;;4.57;3.03;;;27.30;42.60;;;;;;7376176;19;20408;-44
2022/06/17 08:34:10;;;;;;;4.87;2.87;;;27.50;43.00;;;;;;7375108;19;20920;-44
2022/06/17 08:36:43;;;;;;;3.30;3.00;;;27.60;42.20;;;;;;7377569;19;22198;-44
2022/06/17 08:39:14;;;;;;;3.60;2.83;;;27.80;42.40;;;;;;7358387;19;20396;-45
2022/06/17 08:41:56;;;;;;;4.37;2.83;;;28.00;41.90;;;;;;7367964;19;20767;-42
2022/06/17 08:44:37;;;;;;;4.40;2.40;;;28.10;41.00;;;;;;7359338;19;20944;-42
2022/06/17 08:47:24;;;;;;;4.40;2.80;;;28.30;40.00;;;;;;7342848;19;20434;-42
2022/06/17 08:50:16;;;;;;;4.60;2.00;;;28.40;39.90;;;;;;7366135;19;20976;-40
2022/06/17 08:53:30;;;;;;;3.70;2.40;;;28.50;37.20;;;;;;7375010;19;20367;-41
2022/06/17 08:56:04;;;;;;;2.63;2.43;;;28.60;38.30;;;;;;7377091;19;20365;-42
2022/06/17 08:58:50;;;;;;;4.20;2.27;;;28.70;38.30;;;;;;7368229;19;20408;-42
2022/06/17 09:01:28;;;;;;;2.60;2.27;;;29.00;38.00;;;;;;7377375;19;20372;-42
2022/06/17 09:04:19;;;;;;;2.20;2.00;;;29.20;37.30;;;;;;7376814;19;20727;-42
2022/06/17 09:06:58;;;;;;;3.20;2.70;;;29.30;37.10;;;;;;7370896;19;20376;-42
2022/06/17 09:09:49;;;;;;;2.57;2.27;;;29.40;37.20;;;;;;7373987;19;20391;-42
2022/06/17 09:12:28;;;;;;;2.50;2.10;;;29.50;36.70;;;;;;7376200;19;20754;-42
2022/06/17 09:15:06;;;;;;;2.50;2.30;;;29.60;36.40;;;;;;7376553;19;20943;-42
2022/06/17 09:17:47;;;;;;;2.50;2.07;;;29.60;35.80;;;;;;7375705;19;20383;-42
2022/06/17 09:20:22;;;;;;;5.40;2.50;;;29.70;35.50;;;;;;7370191;19;20427;-42
2022/06/17 09:22:56;;;;;;;2.73;1.97;;;30.00;35.40;;;;;;7375948;19;20379;-42
2022/06/17 09:25:34;;;;;;;2.93;2.07;;;30.40;34.10;;;;;;7376172;19;20397;-42
2022/06/17 09:28:11;;;;;;;4.60;2.30;;;30.70;33.00;;;;;;7372748;19;20376;-43
2022/06/17 09:30:46;;;;;;;2.07;1.87;;;30.70;33.30;;;;;;7377657;19;20375;-42
2022/06/17 09:33:21;;;;;;;4.20;2.37;;;31.10;33.30;;;;;;7374840;19;20421;-42
2022/06/17 09:35:56;;;;;;;3.23;2.33;;;31.30;32.20;;;;;;7376042;19;20445;-42
2022/06/17 09:38:29;;;;;;;3.03;2.40;;;31.20;31.50;;;;;;7375681;19;20379;-42
2022/06/17 09:41:07;;;;;;;2.53;2.00;;;30.90;31.90;;;;;;7372757;19;20364;-42
2022/06/17 09:43:43;;;;;;;4.27;2.20;;;31.20;31.90;;;;;;7375422;19;21009;-42
2022/06/17 09:46:18;;;;;;;3.00;1.97;;;31.40;31.40;;;;;;7376446;19;20820;-42
2022/06/17 09:48:57;;;;;;;3.53;2.30;;;31.80;30.90;;;;;;7377582;19;20380;-42
2022/06/17 09:51:30;;;;;;;2.50;1.60;;;;;;;;;;7377090;19;20411;-42
2022/06/17 09:54:05;;;;;;;2.93;2.00;;;32.80;30.00;;;;;;7374712;19;20364;-43
2022/06/17 09:56:44;;;;;;;3.00;2.10;;;33.40;29.60;;;;;;7365911;19;20412;-41
2022/06/17 09:59:20;;;;;;;4.00;2.37;;;34.00;28.60;;;;;;7373996;19;20371;-41
2022/06/17 10:01:50;;;;;;;2.90;2.17;;;34.20;28.60;;;;;;7376265;19;20375;-41
2022/06/17 10:04:19;;;;;;;3.27;2.00;;;34.80;28.10;;;;;;7373953;19;20373;-42
2022/06/17 10:07:08;;;;;;;1.83;1.67;;;35.10;27.30;;;;;;7374885;19;20372;-42
2022/06/17 10:09:54;;;;;;;3.50;1.80;;;35.30;27.70;;;;;;7375662;19;20372;-43
2022/06/17 10:12:36;;;;;;;2.67;2.10;;;35.90;27.10;;;;;;7376563;19;20376;-45
2022/06/17 10:15:25;;;;;;;2.57;1.67;;;36.70;26.40;;;;;;7371763;19;20757;-45
2022/06/17 10:20:57;;;;;;;2.23;1.83;;;38.20;24.60;;;;;;7375459;19;20910;-45
2022/06/17 10:23:35;;;;;;;2.00;1.80;;;38.50;24.30;;;;;;7373307;19;20380;-44
2022/06/17 10:26:16;;;;;;;4.80;1.90;;;38.70;23.90;;;;;;7368456;19;20416;-44
2022/06/17 10:29:15;;;;;;;3.80;2.40;;;39.00;23.30;;;;;;7381473;19;20396;-44
2022/06/17 10:31:47;;;;;;;27.47;6.80;;;38.80;23.40;;;;;;7379167;19;20377;-44
2022/06/17 10:34:25;;;;;;;4.30;2.50;;;38.50;23.80;;;;;;7381266;19;21570;-44
2022/06/17 10:37:02;;;;;;;2.87;2.00;;;38.50;23.60;;;;;;7383512;19;20384;-45
2022/06/17 10:39:39;;;;;;;2.57;1.80;;;38.80;23.60;;;;;;7383401;19;20376;-43
2022/06/17 10:42:12;;;;;;;1.97;1.57;;;38.30;23.60;;;;;;7379137;19;20372;-42
2022/06/17 10:44:47;;;;;;;1.73;1.60;;;38.70;23.50;;;;;;7382956;19;20732;-42
2022/06/17 10:47:36;;;;;;;2.23;1.70;;;39.50;23.10;;;;;;7377847;19;20415;-42
2022/06/17 10:50:13;;;;;;;3.97;1.60;;;40.20;22.40;;;;;;7383798;19;20383;-42
2022/06/17 10:52:47;;;;;;;2.17;1.63;;;40.40;22.90;;;;;;7383239;19;20383;-43
2022/06/17 10:55:21;;;;;;;2.50;1.60;;;40.50;22.60;;;;;;7382638;19;20416;-42
2022/06/17 10:58:16;;;;;;;3.83;2.03;;;41.10;22.40;;;;;;7371768;19;20390;-43
2022/06/17 11:00:59;;;;;;;5.43;1.73;;;41.60;21.80;;;;;;7377315;19;20788;-42
2022/06/17 11:03:34;;;;;;;2.00;1.57;;;41.90;21.90;;;;;;7380984;19;20412;-42
2022/06/17 11:06:15;;;;;;;3.03;1.60;;;42.30;21.10;;;;;;7378910;19;20427;-42
2022/06/17 11:08:55;;;;;;;2.50;1.60;;;42.30;20.90;;;;;;7379394;19;20375;-42
2022/06/17 11:14:26;;;;;;;3.07;1.60;;;42.40;21.30;;;;;;7380317;19;20396;-44
2022/06/17 11:16:59;;;;;;;1.77;1.50;;;42.20;20.70;;;;;;7379611;19;20416;-45
2022/06/17 11:19:29;;;;;;;2.10;1.60;;;41.90;20.80;;;;;;7382301;19;20471;-45
2022/06/17 11:22:02;;;;;;;2.67;2.10;;;41.40;20.90;;;;;;7375718;19;20376;-45
2022/06/17 11:24:38;;;;;;;2.00;1.70;;;40.50;21.30;;;;;;7375775;19;20390;-44
2022/06/17 11:27:17;;;;;;;5.03;2.13;;;40.80;21.80;;;;;;7375149;19;20384;-44
2022/06/17 11:29:50;;;;;;;2.20;1.77;;;40.20;21.70;;;;;;7376864;19;20384;-43
2022/06/17 11:32:33;;;;;;;2.17;1.97;;;38.90;22.20;;;;;;7379208;19;20368;-44
2022/06/17 11:35:22;;;;;;;2.50;1.60;;;39.50;22.80;;;;;;7379583;19;20364;-45
2022/06/17 11:37:53;;;;;;;2.50;2.30;;;40.60;21.80;;;;;;7378083;19;20793;-45
2022/06/17 11:40:25;;;;;;;3.23;1.60;;;41.70;21.00;;;;;;7377369;19;20362;-45
2022/06/17 11:42:57;;;;;;;2.80;1.33;;;42.80;20.50;;;;;;7381026;19;20376;-45
2022/06/17 11:45:36;;;;;;;1.70;1.60;;;43.00;19.80;;;;;;7378240;19;20384;-45
2022/06/17 11:48:14;;;;;;;4.67;2.00;;;42.50;19.10;;;;;;7375864;19;20902;-45
2022/06/17 11:51:05;;;;;;;1.60;1.30;;;42.00;19.90;;;;;;7380994;19;20391;-45
2022/06/17 11:53:47;;;;;;;1.57;1.47;;;41.80;19.50;;;;;;7378323;19;20922;-45
2022/06/17 11:56:36;;;;;;;1.90;1.30;;;42.30;19.60;;;;;;7369155;19;20457;-45
2022/06/17 11:59:13;;;;;;;1.80;1.57;;;42.90;19.60;;;;;;7374671;19;20432;-45
2022/06/17 12:01:50;;;;;;;2.57;1.33;;;43.20;19.90;;;;;;7377781;19;20977;-45
2022/06/17 12:04:44;;;;;;;1.80;1.20;;;43.00;19.00;;;;;;7380829;19;20394;-45
2022/06/17 12:07:47;;;;;;;1.50;1.40;;;42.90;18.10;;;;;;7377202;19;20429;-45
2022/06/17 12:10:35;;;;;;;2.73;1.50;;;42.90;19.60;;;;;;7376931;19;20473;-45
2022/06/17 12:13:14;;;;;;;4.87;1.40;;;43.10;18.90;;;;;;7377309;19;20941;-45
2022/06/17 12:15:47;;;;;;;2.13;1.60;;;43.30;19.00;;;;;;7380278;19;20420;-45
2022/06/17 12:18:23;;;;;;;2.00;1.43;;;43.30;18.90;;;;;;7374284;19;20957;-45
2022/06/17 12:21:17;;;;;;;2.60;1.60;;;43.60;18.10;;;;;;7365007;19;20368;-45
2022/06/17 12:23:53;;;;;;;1.50;1.40;;;43.90;18.00;;;;;;7354955;19;20431;-45
2022/06/17 12:26:40;;;;;;;5.17;1.17;;;44.20;17.70;;;;;;7375111;19;20923;-44
2022/06/17 12:29:17;;;;;;;1.60;1.13;;;44.20;18.50;;;;;;7370086;19;20397;-44
2022/06/17 12:31:51;;;;;;;1.43;1.23;;;44.50;18.20;;;;;;7362574;19;20414;-44
2022/06/17 12:34:32;;;;;;;1.20;1.10;;;44.60;17.90;;;;;;7369353;19;20512;-45
2022/06/17 12:37:10;;;;;;;1.20;1.10;;;44.40;17.80;;;;;;7358551;19;20527;-45
2022/06/17 12:39:47;;;;;;;1.97;1.63;;;44.70;17.90;;;;;;7358240;19;20839;-45
2022/06/17 12:42:29;;;;;;;1.73;1.00;;;44.50;18.00;;;;;;7347495;19;20415;-42
2022/06/17 12:45:08;;;;;;;1.37;1.27;;;43.60;18.10;;;;;;7356714;19;20384;-42
2022/06/17 12:47:52;;;;;;;2.40;1.47;;;43.00;18.90;;;;;;7352145;19;20424;-42
2022/06/17 12:53:27;;;;;;;3.20;1.30;;;43.20;18.90;;;;;;7372735;19;20480;-42
2022/06/17 12:56:09;;;;;;;1.13;1.03;;;43.30;19.10;;;;;;7374088;19;21270;-42
2022/06/17 12:59:07;;;;;;;1.37;1.17;;;43.50;19.20;;;;;;7377329;19;20430;-42
2022/06/17 13:01:43;;;;;;;1.43;1.10;;;43.80;18.50;;;;;;7375916;19;20402;-43
2022/06/17 13:04:28;;;;;;;1.00;0.90;;;43.40;18.30;;;;;;7376457;19;20379;-42
2022/06/17 13:07:08;;;;;;;1.40;1.07;;;42.60;18.50;;;;;;7366912;19;20483;-43
2022/06/17 13:09:55;;;;;;;1.20;0.90;;;42.50;18.90;;;;;;7375795;19;20403;-43
2022/06/17 13:12:34;;;;;;;2.57;1.23;;;42.80;19.00;;;;;;7367564;19;21005;-43
2022/06/17 13:15:08;;;;;;;1.43;0.87;;;42.60;19.30;;;;;;7370803;19;20379;-43
2022/06/17 13:17:43;;;;;;;1.10;1.00;;;42.80;18.60;;;;;;7349004;19;21087;-45
2022/06/17 13:20:18;;;;;;;1.17;1.00;;;42.90;19.30;;;;;;7372815;19;20382;-45
2022/06/17 13:22:53;;;;;;;1.23;1.00;;;43.00;18.60;;;;;;7346067;19;20402;-44
2022/06/17 13:25:35;;;;;;;1.30;1.03;;;43.00;17.90;;;;;;7365459;19;20371;-44
2022/06/17 13:28:13;;;;;;;1.33;0.80;;;42.00;18.20;;;;;;7368294;19;20367;-43
2022/06/17 13:30:53;;;;;;;1.43;0.90;;;41.80;18.30;;;;;;7366115;19;20404;-44
2022/06/17 13:33:27;;;;;;;3.30;0.87;;;41.90;18.80;;;;;;7361187;19;20374;-44
2022/06/17 13:36:06;;;;;;;1.47;1.10;;;41.80;18.90;;;;;;7371737;19;20408;-44
2022/06/17 13:38:40;;;;;;;1.20;1.10;;;40.90;18.70;;;;;;7371639;19;20387;-45
2022/06/17 13:41:19;;;;;;;1.47;1.37;;;40.40;19.30;;;;;;7369378;19;20376;-44
2022/06/17 13:43:52;;;;;;;1.30;1.10;;;40.30;19.40;;;;;;7375549;19;20916;-45
2022/06/17 13:46:28;;;;;;;1.30;1.13;;;40.30;19.40;;;;;;7362695;19;20432;-45
2022/06/17 13:49:04;;;;;;;1.20;1.00;;;39.60;19.50;;;;;;7366156;19;20838;-44